Time;durP1;ratioP1;P1;durP2;ratioP2;P2;SDS_P1;SDS_P2;PMS_P1;PMS_P2;Temp;Humidity;BMP_temperature;BMP_pressure;BME280_temperature;BME280_humidity;BME280_pressure;Samples;Min_cycle;Max_cycle;Signal;HPM_P1;HPM_P2
2023/04/24 00:01:02;;;;;;;0.10;0.10;;;;;;;22.19;35.38;99114.84;4541850;28;20106;-59
2023/04/24 00:03:12;;;;;;;0.20;0.20;;;;;;;22.12;35.43;99102.53;4542469;28;20052;-59
2023/04/24 00:05:23;;;;;;;0.10;0.10;;;;;;;22.18;35.57;99103.78;4543049;28;20031;-59
2023/04/24 00:07:34;;;;;;;0.10;0.10;;;;;;;22.18;35.25;99113.19;4542816;28;20041;-59
2023/04/24 00:09:45;;;;;;;0.20;0.10;;;;;;;22.19;35.30;99109.13;4544103;28;20052;-59
2023/04/24 00:11:56;;;;;;;0.47;0.17;;;;;;;22.18;35.03;99104.56;4541816;28;20115;-59
2023/04/24 00:14:06;;;;;;;0.13;0.10;;;;;;;22.17;35.23;99100.06;4510864;28;20104;-59
2023/04/24 00:16:17;;;;;;;0.13;0.13;;;;;;;22.17;35.03;99094.31;4541536;28;20090;-59
2023/04/24 00:18:27;;;;;;;0.10;0.10;;;;;;;22.18;35.15;99101.69;4542802;28;20139;-59
2023/04/24 00:20:38;;;;;;;0.10;0.10;;;;;;;22.18;34.78;99100.91;4541065;28;20048;-59
2023/04/24 00:22:48;;;;;;;0.10;0.10;;;;;;;22.18;34.91;99109.53;4542200;28;20036;-59
2023/04/24 00:24:59;;;;;;;0.10;0.10;;;;;;;22.17;34.99;99108.69;4541576;28;20037;-59
2023/04/24 00:27:09;;;;;;;0.10;0.10;;;;;;;22.17;34.47;99105.81;4542296;28;20024;-61
2023/04/24 00:29:20;;;;;;;0.20;0.20;;;;;;;22.17;34.93;99108.69;4529188;28;20037;-59
2023/04/24 00:31:30;;;;;;;0.47;0.20;;;;;;;22.17;34.89;99102.13;4545863;28;20805;-60
2023/04/24 00:33:41;;;;;;;0.10;0.10;;;;;;;22.15;35.13;99101.75;4544775;28;20067;-60
2023/04/24 00:35:51;;;;;;;0.20;0.20;;;;;;;22.16;34.87;99104.19;4546631;28;20375;-60
2023/04/24 00:38:01;;;;;;;0.10;0.10;;;;;;;22.14;34.73;99094.31;4519444;28;20124;-60
2023/04/24 00:40:12;;;;;;;0.28;0.20;;;;;;;22.15;35.18;99096.78;4536792;28;20043;-60
2023/04/24 00:42:24;;;;;;;0.10;0.10;;;;;;;22.16;34.97;99103.38;4536645;28;20027;-60
2023/04/24 00:44:35;;;;;;;0.15;0.15;;;;;;;22.03;35.17;99082.88;4525570;28;20128;-60
2023/04/24 00:46:46;;;;;;;0.10;0.10;;;;;;;22.14;35.20;99100.91;4545975;28;20033;-60
2023/04/24 00:48:59;;;;;;;0.10;0.10;;;;;;;22.16;35.27;99097.63;4546216;28;20203;-60
2023/04/24 00:51:09;;;;;;;0.10;0.10;;;;;;;22.15;34.87;99099.66;4510467;28;20037;-60
2023/04/24 00:53:20;;;;;;;0.10;0.10;;;;;;;22.14;34.91;99089.41;4544271;28;20464;-60
2023/04/24 00:55:31;;;;;;;0.13;0.13;;;;;;;22.15;35.03;99093.13;4526035;28;20152;-60
2023/04/24 00:57:43;;;;;;;0.50;0.10;;;;;;;22.14;35.22;99092.28;4545463;28;20672;-60
2023/04/24 00:59:54;;;;;;;0.10;0.10;;;;;;;22.13;35.04;99090.66;4527180;28;20045;-60
2023/04/24 01:02:05;;;;;;;0.28;0.10;;;;;;;22.14;35.13;99088.59;4544045;28;20047;-60
2023/04/24 01:04:17;;;;;;;0.40;0.10;;;;;;;22.14;35.15;99077.91;4546017;28;20501;-61
2023/04/24 01:06:30;;;;;;;0.10;0.10;;;;;;;22.11;34.88;99080.78;4526418;28;20025;-60
2023/04/24 01:08:41;;;;;;;0.10;0.10;;;;;;;22.12;35.21;99083.25;4526310;28;20508;-60
2023/04/24 01:10:52;;;;;;;0.10;0.10;;;;;;;22.11;35.13;99067.25;4525562;28;20626;-60
2023/04/24 01:13:03;;;;;;;0.10;0.10;;;;;;;22.13;34.89;99073.41;4526135;28;20055;-60
2023/04/24 01:15:13;;;;;;;0.10;0.10;;;;;;;22.12;35.00;99071.75;4525879;28;20064;-60
2023/04/24 01:17:23;;;;;;;0.10;0.10;;;;;;;22.12;34.66;99074.63;4545873;28;20147;-60
2023/04/24 01:19:34;;;;;;;0.17;0.17;;;;;;;22.09;34.46;99068.88;4526731;28;20088;-60
2023/04/24 01:21:47;;;;;;;0.10;0.10;;;;;;;22.12;34.79;99068.88;4526711;28;20026;-60
2023/04/24 01:23:57;;;;;;;0.28;0.20;;;;;;;22.11;34.64;99073.00;4527784;28;20240;-60
2023/04/24 01:26:08;;;;;;;0.20;0.10;;;;;;;22.13;34.21;99081.22;4535935;28;20024;-60
2023/04/24 01:28:19;;;;;;;0.20;0.13;;;;;;;22.11;34.15;99087.38;4546080;28;20058;-59
2023/04/24 01:30:30;;;;;;;0.10;0.10;;;;;;;22.10;34.65;99082.84;4513422;28;20312;-61
2023/04/24 01:32:44;;;;;;;0.20;0.20;;;;;;;22.11;34.49;99090.25;4525907;28;20117;-60
2023/04/24 01:34:55;;;;;;;0.28;0.10;;;;;;;22.05;34.84;99079.59;4545680;28;20620;-60
2023/04/24 01:37:05;;;;;;;0.10;0.10;;;;;;;22.11;35.06;99089.41;4536335;28;20037;-60
2023/04/24 01:39:16;;;;;;;0.10;0.10;;;;;;;22.11;35.09;99092.28;4544459;28;20044;-60
2023/04/24 01:41:28;;;;;;;0.35;0.10;;;;;;;22.05;35.33;99080.41;4543886;28;20098;-60
2023/04/24 01:43:39;;;;;;;0.17;0.10;;;;;;;22.11;35.45;99098.88;4545383;28;20032;-60
2023/04/24 01:45:49;;;;;;;0.10;0.10;;;;;;;22.10;35.60;99096.41;4527113;28;20545;-60
2023/04/24 01:48:00;;;;;;;0.20;0.10;;;;;;;22.07;35.78;99091.50;4543994;28;20044;-61
2023/04/24 01:50:11;;;;;;;0.10;0.10;;;;;;;22.10;36.09;99094.31;4545935;28;20037;-60
2023/04/24 01:52:23;;;;;;;0.40;0.20;;;;;;;22.09;35.22;99092.69;4527341;28;20045;-60
2023/04/24 01:54:34;;;;;;;0.10;0.10;;;;;;;22.09;35.56;99098.44;4535241;28;20067;-60
2023/04/24 01:56:46;;;;;;;0.10;0.10;;;;;;;22.10;35.47;99091.47;4528090;28;20048;-60
2023/04/24 01:58:57;;;;;;;0.10;0.10;;;;;;;22.05;35.49;99085.31;4525570;28;20044;-60
2023/04/24 02:01:07;;;;;;;0.00;0.00;;;;;;;22.06;35.73;99079.16;4526523;28;20042;-60
2023/04/24 02:03:18;;;;;;;0.10;0.10;;;;;;;22.08;35.21;99085.31;4543993;28;20041;-60
2023/04/24 02:05:28;;;;;;;0.20;0.20;;;;;;;22.07;35.40;99077.91;4525248;28;20045;-60
2023/04/24 02:07:39;;;;;;;0.10;0.10;;;;;;;22.07;35.42;99075.03;4535240;28;20116;-60
2023/04/24 02:09:50;;;;;;;0.10;0.10;;;;;;;22.07;35.90;99074.25;4546764;28;20039;-60
2023/04/24 02:12:00;;;;;;;0.13;0.10;;;;;;;22.06;35.69;99064.78;4535959;28;20043;-61
2023/04/24 02:14:11;;;;;;;0.13;0.13;;;;;;;22.06;35.72;99063.97;4536286;28;20589;-60
2023/04/24 02:16:24;;;;;;;0.20;0.20;;;;;;;22.06;35.61;99058.22;4545379;28;20059;-60
2023/04/24 02:18:35;;;;;;;0.15;0.15;;;;;;;22.06;35.26;99056.19;4542071;28;20042;-61
2023/04/24 02:20:45;;;;;;;0.15;0.15;;;;;;;22.06;35.22;99061.94;4527114;28;20029;-60
2023/04/24 02:22:55;;;;;;;0.10;0.10;;;;;;;22.06;35.11;99063.97;4525462;28;20634;-60
2023/04/24 02:25:07;;;;;;;0.52;0.10;;;;;;;22.05;35.44;99071.78;4545542;28;20120;-60
2023/04/24 02:27:18;;;;;;;0.10;0.10;;;;;;;22.04;35.39;99067.25;4545067;28;20045;-60
2023/04/24 02:29:28;;;;;;;0.10;0.10;;;;;;;22.03;35.01;99071.38;4545418;28;20032;-60
2023/04/24 02:31:39;;;;;;;0.32;0.10;;;;;;;22.05;35.17;99080.41;4546482;28;20028;-60
2023/04/24 02:33:50;;;;;;;0.20;0.20;;;;;;;22.04;35.34;99078.75;4546866;28;20029;-60
2023/04/24 02:36:01;;;;;;;0.10;0.10;;;;;;;21.98;35.10;99068.91;4544379;28;20408;-59
2023/04/24 02:38:12;;;;;;;0.10;0.10;;;;;;;22.05;35.08;99082.44;4543547;28;20658;-60
2023/04/24 02:40:22;;;;;;;0.10;0.10;;;;;;;22.03;35.10;99077.13;4544291;28;20040;-60
2023/04/24 02:42:32;;;;;;;0.57;0.20;;;;;;;22.04;34.80;99073.00;4526557;28;20041;-60
2023/04/24 02:44:43;;;;;;;0.15;0.15;;;;;;;22.03;34.79;99065.63;4543157;28;20048;-60
2023/04/24 02:46:53;;;;;;;0.13;0.13;;;;;;;22.03;35.18;99068.50;4543638;28;20037;-60
2023/04/24 02:49:04;;;;;;;0.10;0.10;;;;;;;22.04;35.12;99069.34;4534991;28;20029;-60
2023/04/24 02:51:14;;;;;;;0.57;0.20;;;;;;;22.03;34.84;99065.63;4534336;28;20032;-60
2023/04/24 02:53:25;;;;;;;0.10;0.10;;;;;;;22.02;34.74;99063.97;4544330;28;20396;-60
2023/04/24 02:55:35;;;;;;;0.10;0.10;;;;;;;22.02;35.10;99069.72;4533967;28;20484;-60
2023/04/24 02:57:46;;;;;;;0.10;0.10;;;;;;;22.03;35.25;99070.53;4527780;28;20037;-60
2023/04/24 02:59:56;;;;;;;0.15;0.15;;;;;;;22.03;35.16;99067.66;4545125;28;20120;-60
2023/04/24 03:02:07;;;;;;;0.10;0.10;;;;;;;22.03;35.05;99067.66;4535362;28;20115;-60
2023/04/24 03:04:20;;;;;;;0.17;0.17;;;;;;;22.02;34.90;99069.72;4524797;28;20037;-60
2023/04/24 03:06:32;;;;;;;0.10;0.10;;;;;;;22.01;35.20;99073.84;4524602;28;20030;-60
2023/04/24 03:08:43;;;;;;;0.20;0.20;;;;;;;22.02;35.16;99075.47;4524957;28;20125;-60
2023/04/24 03:10:55;;;;;;;0.20;0.20;;;;;;;22.01;35.19;99076.72;4543086;28;20603;-61
2023/04/24 03:13:05;;;;;;;0.20;0.20;;;;;;;22.01;35.31;99070.13;4526269;28;20037;-60
2023/04/24 03:15:16;;;;;;;0.13;0.13;;;;;;;21.99;35.58;99069.75;4527237;28;20047;-59
2023/04/24 03:17:27;;;;;;;0.17;0.17;;;;;;;22.00;35.59;99062.75;4535696;28;20020;-60
2023/04/24 03:19:37;;;;;;;0.10;0.10;;;;;;;22.00;35.03;99072.22;4534281;28;20046;-61
2023/04/24 03:21:53;;;;;;;0.20;0.20;;;;;;;21.96;34.91;99059.88;4526236;28;20051;-60
2023/04/24 03:24:04;;;;;;;0.20;0.20;;;;;;;21.94;34.97;99056.63;4535856;28;20051;-60
2023/04/24 03:26:14;;;;;;;0.22;0.20;;;;;;;22.00;35.35;99066.47;4527682;28;20476;-60
2023/04/24 03:28:35;;;;;;;0.25;0.25;;;;;;;22.00;35.09;99054.13;4529501;28;20579;-60
2023/04/24 03:30:48;;;;;;;0.15;0.15;;;;;;;21.99;35.35;99070.53;4540758;28;20036;-60
2023/04/24 03:33:00;;;;;;;0.20;0.20;;;;;;;22.00;35.51;99074.25;4534235;28;20572;-60
2023/04/24 03:35:13;;;;;;;0.40;0.20;;;;;;;21.99;35.67;99070.53;4544034;28;20036;-59
2023/04/24 03:37:25;;;;;;;0.10;0.10;;;;;;;21.99;35.95;99073.41;4534570;28;20044;-60
2023/04/24 03:39:46;;;;;;;0.20;0.20;;;;;;;21.99;36.06;99073.41;4527133;28;20687;-60
2023/04/24 03:41:58;;;;;;;0.28;0.20;;;;;;;21.95;35.78;99066.88;4525694;28;20069;-60
2023/04/24 03:44:17;;;;;;;0.20;0.20;;;;;;;21.98;36.00;99080.41;4524699;28;20792;-60
2023/04/24 03:46:29;;;;;;;0.10;0.10;;;;;;;21.97;36.11;99084.53;4533970;28;21143;-60
2023/04/24 03:48:43;;;;;;;0.20;0.20;;;;;;;21.98;35.71;99083.28;4524969;28;20107;-60
2023/04/24 03:50:54;;;;;;;0.20;0.20;;;;;;;21.97;35.37;99081.66;4525229;28;20540;-60
2023/04/24 03:53:05;;;;;;;0.30;0.22;;;;;;;21.97;35.66;99090.28;4525028;28;20033;-61
2023/04/24 03:55:21;;;;;;;0.20;0.20;;;;;;;21.97;35.55;99083.69;4534858;28;20137;-60
2023/04/24 03:57:32;;;;;;;0.22;0.20;;;;;;;21.95;35.47;99089.84;4533601;28;20029;-60
2023/04/24 03:59:53;;;;;;;0.25;0.25;;;;;;;21.96;35.63;99077.13;4522799;28;20659;-60
2023/04/24 04:02:03;;;;;;;0.30;0.30;;;;;;;21.97;35.45;99081.66;4525277;28;20034;-60
2023/04/24 04:04:14;;;;;;;0.30;0.30;;;;;;;21.96;35.34;99085.75;4527742;28;20544;-60
2023/04/24 04:06:24;;;;;;;0.30;0.30;;;;;;;21.96;35.69;99067.69;4533847;28;20025;-59
2023/04/24 04:08:37;;;;;;;0.30;0.30;;;;;;;21.96;35.68;99085.75;4536504;28;20041;-60
2023/04/24 04:10:48;;;;;;;0.30;0.30;;;;;;;21.95;35.39;99081.25;4526429;28;20070;-60
2023/04/24 04:12:58;;;;;;;0.40;0.40;;;;;;;21.96;35.28;99079.19;4528516;28;20038;-59
2023/04/24 04:15:09;;;;;;;0.30;0.30;;;;;;;21.95;35.23;99081.25;4526110;28;20676;-60
2023/04/24 04:17:20;;;;;;;0.30;0.30;;;;;;;21.95;35.32;99089.03;4528394;28;20068;-60
2023/04/24 04:19:30;;;;;;;0.40;0.30;;;;;;;21.95;35.58;99087.00;4528345;28;20049;-60
2023/04/24 04:21:41;;;;;;;0.40;0.40;;;;;;;21.95;35.53;99098.47;4527530;28;20524;-60
2023/04/24 04:24:05;;;;;;;0.30;0.30;;;;;;;21.94;35.58;99099.72;4537503;28;20987;-60
2023/04/24 04:26:21;;;;;;;0.50;0.50;;;;;;;21.95;35.27;99097.66;4526441;28;20038;-60
2023/04/24 04:28:52;;;;;;;0.50;0.50;;;;;;;21.94;35.31;99102.59;4530585;28;20036;-60
2023/04/24 04:31:03;;;;;;;0.40;0.40;;;;;;;21.94;35.30;99098.88;4530315;28;20088;-60
2023/04/24 04:33:14;;;;;;;0.40;0.40;;;;;;;21.94;35.12;99098.88;4536192;28;20084;-60
2023/04/24 04:35:25;;;;;;;1.00;0.68;;;;;;;21.93;34.94;99102.97;4528180;28;20119;-60
2023/04/24 04:37:38;;;;;;;0.70;0.70;;;;;;;21.93;34.44;99106.69;4535952;28;20116;-60
2023/04/24 04:40:11;;;;;;;1.60;1.30;;;;;;;21.93;34.08;99118.16;4530906;28;20157;-61
2023/04/24 04:42:28;;;;;;;0.70;0.70;;;;;;;21.93;34.22;99118.16;4526207;28;20041;-61
2023/04/24 04:44:39;;;;;;;0.50;0.50;;;;;;;21.93;34.39;99123.09;4536722;28;20041;-62
2023/04/24 04:46:53;;;;;;;0.50;0.50;;;;;;;21.93;34.17;99123.91;4545998;28;20682;-62
2023/04/24 04:49:10;;;;;;;0.70;0.68;;;;;;;21.92;34.55;99130.91;4527352;28;20123;-60
2023/04/24 04:51:21;;;;;;;0.70;0.70;;;;;;;21.92;34.28;99128.03;4537238;28;20111;-63
2023/04/24 04:53:31;;;;;;;0.70;0.70;;;;;;;21.92;34.09;99132.94;4544701;28;20115;-60
2023/04/24 04:55:42;;;;;;;0.70;0.70;;;;;;;21.92;33.78;99128.03;4543689;28;20535;-60
2023/04/24 04:58:00;;;;;;;0.75;0.75;;;;;;;21.88;33.27;99132.16;4524800;28;20144;-59
2023/04/24 05:00:11;;;;;;;0.75;0.75;;;;;;;21.86;33.40;99125.97;4525857;28;20029;-60
2023/04/24 05:02:29;;;;;;;0.90;0.90;;;;;;;21.90;33.02;99136.22;4535988;28;20048;-60
2023/04/24 05:04:40;;;;;;;0.80;0.80;;;;;;;21.90;33.20;99129.66;4519801;28;20072;-60
2023/04/24 05:06:51;;;;;;;1.15;1.10;;;;;;;21.90;32.87;99139.09;4535208;28;20060;-60
2023/04/24 05:09:03;;;;;;;0.90;0.90;;;;;;;21.87;32.83;99128.44;4535576;28;20112;-60
2023/04/24 05:11:27;;;;;;;1.10;1.00;;;;;;;21.90;32.94;99147.72;4526621;28;20037;-60
2023/04/24 05:13:39;;;;;;;1.20;1.10;;;;;;;21.89;32.41;99148.97;4525238;28;20036;-60
2023/04/24 05:15:52;;;;;;;1.20;1.10;;;;;;;21.87;32.75;99142.81;4534785;28;20359;-60
2023/04/24 05:18:03;;;;;;;1.30;1.20;;;;;;;21.89;32.85;99146.09;4544830;28;20100;-60
2023/04/24 05:20:14;;;;;;;1.10;1.00;;;;;;;21.89;32.93;99137.47;4535512;28;20039;-60
2023/04/24 05:22:25;;;;;;;1.08;0.98;;;;;;;21.89;33.08;99133.78;4526309;28;20033;-60
2023/04/24 05:24:36;;;;;;;1.10;0.90;;;;;;;21.88;33.08;99132.16;4527236;28;20021;-60
2023/04/24 05:26:49;;;;;;;0.80;0.80;;;;;;;21.88;33.24;99132.94;4545081;28;20818;-60
2023/04/24 05:29:04;;;;;;;0.82;0.82;;;;;;;21.90;33.32;99135.41;4526805;28;20037;-60
2023/04/24 05:31:14;;;;;;;1.10;1.00;;;;;;;21.88;33.03;99132.94;4535243;28;20134;-60
2023/04/24 05:33:25;;;;;;;0.93;0.90;;;;;;;21.87;33.08;99134.19;4536229;28;20819;-60
2023/04/24 05:35:35;;;;;;;1.50;1.20;;;;;;;21.88;32.55;99126.41;4518825;28;20048;-60
2023/04/24 05:37:46;;;;;;;1.38;1.27;;;;;;;21.87;32.93;99137.06;4544104;28;20036;-60
2023/04/24 05:39:57;;;;;;;1.42;1.33;;;;;;;21.87;32.68;99139.94;4540981;28;20044;-60
2023/04/24 05:42:08;;;;;;;1.33;1.23;;;;;;;21.87;32.89;99136.22;4544414;28;20025;-60
2023/04/24 05:44:18;;;;;;;1.48;1.38;;;;;;;21.87;32.53;99134.19;4545246;28;20033;-61
2023/04/24 05:46:28;;;;;;;1.63;1.40;;;;;;;21.86;32.83;99141.19;4535635;28;20394;-60
2023/04/24 05:48:40;;;;;;;1.30;1.20;;;;;;;21.87;32.88;99131.31;4525881;28;20111;-60
2023/04/24 05:50:52;;;;;;;1.40;1.30;;;;;;;21.86;33.04;99138.31;4535348;28;20056;-60
2023/04/24 05:53:03;;;;;;;2.08;1.65;;;;;;;21.86;33.04;99134.59;4535646;28;20801;-60
2023/04/24 05:55:18;;;;;;;1.50;1.40;;;;;;;21.85;32.87;99139.50;4543000;28;20970;-60
2023/04/24 05:57:28;;;;;;;1.17;1.08;;;;;;;21.85;33.15;99139.50;4533997;28;20139;-60
2023/04/24 05:59:45;;;;;;;1.30;1.20;;;;;;;21.85;33.05;99138.72;4508351;28;20038;-60
2023/04/24 06:01:56;;;;;;;1.30;1.20;;;;;;;21.86;32.92;99143.22;4523557;28;20033;-60
2023/04/24 06:04:08;;;;;;;1.30;1.20;;;;;;;21.85;33.01;99144.47;4524829;28;20084;-60
2023/04/24 06:06:19;;;;;;;1.60;1.50;;;;;;;21.84;33.12;99137.06;4525625;28;20028;-60
2023/04/24 06:08:30;;;;;;;1.42;1.27;;;;;;;21.84;32.82;99143.63;4543630;28;20807;-60
2023/04/24 06:10:41;;;;;;;1.20;1.10;;;;;;;21.85;32.60;99153.88;4532819;28;20033;-62
2023/04/24 06:12:56;;;;;;;1.25;1.15;;;;;;;21.84;33.00;99149.38;4525223;28;20041;-60
2023/04/24 06:15:07;;;;;;;1.33;1.20;;;;;;;21.84;33.11;99155.13;4540512;28;20107;-60
2023/04/24 06:17:46;;;;;;;1.65;1.20;;;;;;;21.84;33.18;99155.13;4533458;28;20110;-60
2023/04/24 06:19:59;;;;;;;1.33;1.13;;;;;;;21.84;33.13;99149.38;4531163;28;20817;-60
2023/04/24 06:22:10;;;;;;;1.33;1.20;;;;;;;21.85;33.00;99153.06;4524812;28;20139;-60
2023/04/24 06:24:21;;;;;;;1.30;1.20;;;;;;;21.84;33.11;99166.59;4544314;28;20029;-60
2023/04/24 06:26:31;;;;;;;1.20;1.10;;;;;;;21.83;32.94;99179.34;4518090;28;20041;-60
2023/04/24 06:28:42;;;;;;;1.30;1.20;;;;;;;21.83;32.74;99164.16;4534536;28;20037;-60
2023/04/24 06:30:52;;;;;;;1.30;1.20;;;;;;;21.82;32.65;99166.19;4542921;28;20041;-60
2023/04/24 06:33:02;;;;;;;1.20;1.10;;;;;;;21.82;32.56;99163.31;4531859;28;20653;-60
2023/04/24 06:35:13;;;;;;;1.70;1.35;;;;;;;21.82;32.55;99165.34;4525756;28;20128;-60
2023/04/24 06:37:23;;;;;;;1.30;1.02;;;;;;;21.81;32.29;99173.16;4526066;28;20751;-60
2023/04/24 06:39:34;;;;;;;1.08;1.02;;;;;;;21.82;32.39;99157.56;4545781;28;20428;-60
2023/04/24 06:41:45;;;;;;;1.48;1.13;;;;;;;21.81;32.51;99157.97;4543218;28;20043;-60
2023/04/24 06:44:03;;;;;;;1.35;1.13;;;;;;;21.82;32.05;99171.09;4524882;28;20072;-60
2023/04/24 06:46:13;;;;;;;1.45;1.10;;;;;;;21.81;32.03;99163.72;4536286;28;20024;-60
2023/04/24 06:48:25;;;;;;;0.90;0.90;;;;;;;21.76;32.09;99153.47;4544467;28;20067;-59
2023/04/24 06:50:35;;;;;;;1.10;1.00;;;;;;;21.80;32.09;99157.16;4545007;28;20067;-60
2023/04/24 06:52:46;;;;;;;1.20;1.10;;;;;;;21.82;32.06;99159.63;4544343;28;20465;-60
2023/04/24 06:55:02;;;;;;;1.15;0.95;;;;;;;21.79;32.05;99158.41;4543902;28;20044;-60
2023/04/24 06:57:12;;;;;;;1.20;1.02;;;;;;;21.81;32.00;99160.84;4544537;28;20044;-60
2023/04/24 06:59:27;;;;;;;1.50;1.02;;;;;;;21.81;31.81;99161.69;4543053;28;20032;-60
2023/04/24 07:01:37;;;;;;;0.98;0.98;;;;;;;21.79;32.19;99155.53;4543035;28;20086;-60
2023/04/24 07:03:48;;;;;;;0.90;0.90;;;;;;;21.80;31.80;99171.50;4543131;28;20040;-60
2023/04/24 07:05:58;;;;;;;1.00;0.90;;;;;;;21.80;31.88;99160.03;4541608;28;20339;-60
2023/04/24 07:08:11;;;;;;;1.20;1.00;;;;;;;21.79;31.92;99158.41;4541648;28;20033;-60
2023/04/24 07:10:21;;;;;;;0.80;0.80;;;;;;;21.81;32.32;99176.03;4543031;28;20040;-60
2023/04/24 07:12:32;;;;;;;0.90;0.80;;;;;;;21.79;32.36;99167.00;4542665;28;20044;-60
2023/04/24 07:14:43;;;;;;;0.90;0.90;;;;;;;21.79;32.37;99175.63;4534251;28;20033;-60
2023/04/24 07:16:53;;;;;;;1.02;1.00;;;;;;;21.80;31.86;99177.25;4543091;28;20732;-59
2023/04/24 07:19:04;;;;;;;1.58;1.00;;;;;;;21.80;32.28;99176.47;4543047;28;20025;-60
2023/04/24 07:21:14;;;;;;;0.90;0.90;;;;;;;21.78;31.88;99173.16;4541782;28;20056;-60
2023/04/24 07:23:25;;;;;;;1.10;1.00;;;;;;;21.77;32.32;99174.41;4533859;28;20140;-60
2023/04/24 07:25:35;;;;;;;1.10;1.00;;;;;;;21.79;32.04;99175.63;4542572;28;20056;-60
2023/04/24 07:27:46;;;;;;;1.00;0.90;;;;;;;21.73;32.06;99176.41;4545592;28;20037;-60
2023/04/24 07:29:56;;;;;;;0.80;0.80;;;;;;;21.78;32.16;99181.78;4545084;28;20406;-60
2023/04/24 07:32:07;;;;;;;1.10;1.00;;;;;;;21.79;31.84;99180.53;4524911;28;20283;-59
2023/04/24 07:34:18;;;;;;;1.10;1.00;;;;;;;21.79;32.33;99187.13;4542733;28;20025;-60
2023/04/24 07:36:28;;;;;;;1.10;1.00;;;;;;;21.79;32.28;99192.84;4543253;28;20056;-60
2023/04/24 07:38:39;;;;;;;1.20;0.90;;;;;;;21.78;32.05;99191.22;4542582;28;20103;-60
2023/04/24 07:40:49;;;;;;;0.85;0.85;;;;;;;21.78;32.21;99185.47;4544814;28;20069;-60
2023/04/24 07:42:59;;;;;;;1.15;1.05;;;;;;;21.76;32.07;99185.06;4544344;28;20056;-60
2023/04/24 07:45:10;;;;;;;1.10;0.80;;;;;;;21.76;32.43;99193.69;4543228;28;20072;-60
2023/04/24 07:47:20;;;;;;;1.23;0.80;;;;;;;21.78;32.11;99191.22;4542240;28;20043;-60
2023/04/24 07:49:31;;;;;;;0.68;0.68;;;;;;;21.77;31.91;99194.50;4543473;28;20048;-60
2023/04/24 07:51:41;;;;;;;0.70;0.70;;;;;;;21.77;31.82;99197.38;4543638;28;20036;-60
2023/04/24 07:53:52;;;;;;;0.75;0.70;;;;;;;21.77;31.98;99206.00;4544519;28;20040;-60
2023/04/24 07:56:02;;;;;;;0.60;0.60;;;;;;;21.77;32.10;99203.94;4542577;28;20350;-60
2023/04/24 07:58:12;;;;;;;0.73;0.70;;;;;;;21.76;32.69;99210.91;4542064;28;20103;-60
2023/04/24 08:00:23;;;;;;;0.63;0.63;;;;;;;21.77;31.99;99220.34;4542912;28;20048;-61
2023/04/24 08:02:33;;;;;;;0.80;0.80;;;;;;;21.74;32.44;99207.59;4542532;28;20039;-60
2023/04/24 08:04:44;;;;;;;1.10;0.70;;;;;;;21.76;33.13;99210.91;4544876;28;20041;-60
2023/04/24 08:06:54;;;;;;;0.70;0.70;;;;;;;21.76;32.52;99213.78;4543248;28;20086;-60
2023/04/24 08:09:05;;;;;;;0.50;0.50;;;;;;;21.77;32.08;99212.53;4527491;28;20112;-60
2023/04/24 08:11:15;;;;;;;1.15;0.77;;;;;;;21.77;32.94;99217.50;4542545;28;20091;-60
2023/04/24 08:13:26;;;;;;;0.80;0.70;;;;;;;21.77;33.59;99226.91;4543236;28;20064;-60
2023/04/24 08:15:36;;;;;;;0.70;0.60;;;;;;;21.77;33.23;99221.16;4543268;28;20043;-61
2023/04/24 08:17:46;;;;;;;1.52;0.95;;;;;;;21.77;32.18;99224.03;4543811;28;20041;-60
2023/04/24 08:20:01;;;;;;;0.57;0.57;;;;;;;21.78;32.42;99222.81;4543013;28;20024;-60
2023/04/24 08:22:11;;;;;;;0.80;0.80;;;;;;;21.77;32.26;99221.16;4544251;28;20035;-60
2023/04/24 08:24:22;;;;;;;0.60;0.60;;;;;;;21.77;32.41;99228.97;4542986;28;20075;-60
2023/04/24 08:26:33;;;;;;;0.68;0.60;;;;;;;21.79;32.35;99227.31;4542632;28;20072;-60
2023/04/24 08:28:43;;;;;;;0.63;0.60;;;;;;;21.78;32.45;99231.44;4543676;28;20485;-59
2023/04/24 08:30:54;;;;;;;0.60;0.60;;;;;;;21.78;32.65;99230.59;4544316;28;20037;-60
2023/04/24 08:33:05;;;;;;;1.52;0.60;;;;;;;21.76;33.46;99228.16;4542933;28;20033;-60
2023/04/24 08:35:15;;;;;;;0.70;0.70;;;;;;;21.80;32.91;99228.16;4533352;28;20025;-60
2023/04/24 08:37:27;;;;;;;0.63;0.60;;;;;;;21.77;32.33;99224.03;4541122;28;20557;-60
2023/04/24 08:39:37;;;;;;;0.50;0.50;;;;;;;21.80;32.52;99228.97;4542508;28;20037;-60
2023/04/24 08:41:48;;;;;;;0.47;0.47;;;;;;;21.79;33.29;99233.06;4512930;28;20560;-60
2023/04/24 08:43:59;;;;;;;0.50;0.50;;;;;;;21.79;33.03;99233.06;4524649;28;20044;-60
2023/04/24 08:46:11;;;;;;;0.60;0.50;;;;;;;21.80;32.34;99226.09;4542981;28;20088;-60
2023/04/24 08:48:25;;;;;;;1.10;0.80;;;;;;;21.81;31.95;99224.88;4541768;28;20574;-59
2023/04/24 08:50:36;;;;;;;0.40;0.40;;;;;;;21.82;32.01;99235.13;4543544;28;20049;-60
2023/04/24 08:52:56;;;;;;;1.00;0.60;;;;;;;21.81;33.13;99233.50;4526212;28;20040;-60
2023/04/24 08:55:07;;;;;;;1.02;0.50;;;;;;;21.82;32.20;99238.00;4545524;28;20041;-60
2023/04/24 08:57:18;;;;;;;0.70;0.60;;;;;;;21.77;32.28;99224.03;4544458;28;20048;-60
2023/04/24 08:59:30;;;;;;;0.60;0.50;;;;;;;21.80;32.53;99228.97;4546102;28;20129;-60
2023/04/24 09:01:42;;;;;;;0.60;0.52;;;;;;;21.83;32.48;99228.16;4547052;28;20037;-60
2023/04/24 09:03:54;;;;;;;0.98;0.60;;;;;;;21.84;32.61;99235.53;4545482;28;20158;-61
2023/04/24 09:06:06;;;;;;;0.40;0.40;;;;;;;21.84;32.34;99238.41;4547458;28;20028;-60
2023/04/24 09:08:18;;;;;;;1.85;0.60;;;;;;;21.83;32.41;99233.91;4545253;28;20037;-60
2023/04/24 09:10:30;;;;;;;0.50;0.50;;;;;;;21.84;33.08;99237.59;4547217;28;20027;-60
2023/04/24 09:12:41;;;;;;;0.38;0.30;;;;;;;21.82;32.03;99228.53;4529794;28;20173;-60
2023/04/24 09:14:53;;;;;;;0.68;0.40;;;;;;;21.84;31.73;99238.41;4546839;28;20033;-60
2023/04/24 09:17:03;;;;;;;0.32;0.25;;;;;;;21.84;32.79;99241.28;4545039;28;20053;-60
2023/04/24 09:19:14;;;;;;;0.40;0.30;;;;;;;21.85;32.30;99247.88;4537657;28;20260;-60
2023/04/24 09:21:34;;;;;;;0.20;0.20;;;;;;;21.86;31.83;99249.50;4546165;28;20080;-60
2023/04/24 09:23:45;;;;;;;0.80;0.40;;;;;;;21.85;31.40;99248.66;4546599;28;20039;-60
2023/04/24 09:25:56;;;;;;;0.40;0.40;;;;;;;21.86;31.62;99238.00;4544407;28;20048;-61
2023/04/24 09:28:07;;;;;;;0.20;0.20;;;;;;;21.86;31.88;99244.59;4544743;28;20028;-60
2023/04/24 09:30:22;;;;;;;0.32;0.30;;;;;;;21.86;31.60;99238.84;4525742;28;20784;-60
2023/04/24 09:32:33;;;;;;;0.30;0.30;;;;;;;21.87;32.39;99245.38;4543063;28;20025;-60
2023/04/24 09:34:47;;;;;;;0.40;0.40;;;;;;;21.86;31.90;99244.59;4544377;28;20064;-60
2023/04/24 09:36:57;;;;;;;0.30;0.30;;;;;;;21.86;31.99;99256.06;4524813;28;20056;-60
2023/04/24 09:39:11;;;;;;;0.30;0.30;;;;;;;21.86;32.02;99250.31;4544728;28;20452;-60
2023/04/24 09:41:21;;;;;;;0.60;0.30;;;;;;;21.87;33.03;99246.22;4544186;28;20223;-59
2023/04/24 09:43:32;;;;;;;0.20;0.20;;;;;;;21.86;31.45;99250.31;4545243;28;20025;-60
2023/04/24 09:45:43;;;;;;;0.32;0.30;;;;;;;21.86;32.18;99243.75;4545936;28;20039;-60
2023/04/24 09:47:55;;;;;;;0.20;0.20;;;;;;;21.87;31.56;99245.38;4545218;28;20044;-60
2023/04/24 09:50:16;;;;;;;0.22;0.20;;;;;;;21.88;32.44;99247.03;4544329;28;20168;-60
2023/04/24 09:52:27;;;;;;;0.20;0.20;;;;;;;21.88;32.10;99252.78;4542817;28;20506;-60
2023/04/24 09:54:38;;;;;;;0.25;0.25;;;;;;;21.88;32.64;99247.03;4545844;28;20037;-60
2023/04/24 09:56:50;;;;;;;0.30;0.30;;;;;;;21.89;32.68;99254.41;4544499;28;20568;-60
2023/04/24 09:59:06;;;;;;;0.20;0.20;;;;;;;21.88;32.82;99256.47;4545480;28;20094;-62
2023/04/24 10:01:30;;;;;;;0.10;0.10;;;;;;;21.89;32.74;99261.00;4546654;28;21000;-60
2023/04/24 10:03:42;;;;;;;0.20;0.20;;;;;;;21.87;32.38;99260.56;4545877;28;20029;-60
2023/04/24 10:05:53;;;;;;;0.20;0.10;;;;;;;21.89;32.54;99263.88;4526476;28;20596;-62
2023/04/24 10:08:05;;;;;;;0.20;0.20;;;;;;;21.88;32.47;99270.81;4544711;28;20033;-61
2023/04/24 10:10:16;;;;;;;0.20;0.20;;;;;;;21.86;32.46;99267.56;4545174;28;20045;-60
2023/04/24 10:12:28;;;;;;;0.20;0.10;;;;;;;21.87;32.61;99279.84;4544553;28;20033;-60
2023/04/24 10:14:39;;;;;;;0.20;0.20;;;;;;;21.89;32.40;99283.16;4542692;28;20028;-59
2023/04/24 10:16:53;;;;;;;0.15;0.15;;;;;;;21.89;32.74;99286.03;4543261;28;20051;-60
2023/04/24 10:19:04;;;;;;;0.10;0.10;;;;;;;21.88;33.07;99293.81;4544218;28;20037;-60
2023/04/24 10:21:16;;;;;;;0.10;0.10;;;;;;;21.90;33.00;99302.00;4543752;28;20079;-60